Time;durP1;ratioP1;P1;durP2;ratioP2;P2;SDS_P1;SDS_P2;PMS_P1;PMS_P2;Temp;Humidity;BMP_temperature;BMP_pressure;BME280_temperature;BME280_humidity;BME280_pressure;Samples;Min_cycle;Max_cycle;Signal;HPM_P1;HPM_P2
2022/02/14 00:01:51;;;;;;;11.07;3.83;;;;;;;11.10;60.74;99872.69;5066884;28;20123;-75
2022/02/14 00:04:17;;;;;;;7.03;3.17;;;;;;;11.12;60.69;99882.25;5068291;28;20619;-75
2022/02/14 00:06:42;;;;;;;8.73;3.63;;;;;;;11.13;60.88;99875.16;5066565;28;20057;-75
2022/02/14 00:09:07;;;;;;;11.77;4.38;;;;;;;11.19;60.39;99876.63;5066593;28;20028;-74
2022/02/14 00:11:33;;;;;;;8.10;4.05;;;;;;;11.15;60.77;99857.50;5068013;28;20021;-74
2022/02/14 00:13:58;;;;;;;8.30;3.88;;;;;;;11.14;60.84;99879.53;5067262;28;20029;-74
2022/02/14 00:16:23;;;;;;;9.90;3.78;;;;;;;11.16;60.35;99860.97;5066300;28;20179;-74
2022/02/14 00:18:49;;;;;;;9.70;3.97;;;;;;;11.18;60.46;99859.13;5066453;28;20025;-75
2022/02/14 00:21:14;;;;;;;14.20;4.20;;;;;;;11.17;60.58;99855.63;5066384;28;20131;-66
2022/02/14 00:23:40;;;;;;;16.92;4.47;;;;;;;11.19;60.21;99864.31;5066550;28;20025;-75
2022/02/14 00:26:05;;;;;;;13.50;4.55;;;;;;;11.23;60.64;99854.47;5067848;28;20399;-75
2022/02/14 00:28:30;;;;;;;13.43;4.32;;;;;;;11.22;60.56;99852.75;5066575;28;20036;-73
2022/02/14 00:30:56;;;;;;;8.75;4.00;;;;;;;11.21;60.44;99845.78;5066300;28;20036;-74
2022/02/14 00:33:21;;;;;;;14.52;4.10;;;;;;;11.19;60.49;99851.13;5046261;28;20033;-74
2022/02/14 00:35:47;;;;;;;11.07;4.10;;;;;;;11.23;60.76;99841.28;5046639;28;20040;-75
2022/02/14 00:38:13;;;;;;;13.45;3.97;;;;;;;11.26;60.71;99849.03;5044820;28;20434;-74
2022/02/14 00:40:38;;;;;;;7.25;3.90;;;;;;;11.22;60.59;99832.50;5045401;28;20063;-73
2022/02/14 00:43:04;;;;;;;12.55;4.18;;;;;;;11.16;61.03;99839.88;5047332;28;20108;-73
2022/02/14 00:45:30;;;;;;;10.85;4.53;;;;;;;11.20;60.59;99796.63;5047336;28;20104;-73
2022/02/14 00:47:55;;;;;;;13.25;3.50;;;;;;;11.28;60.72;99817.28;5046035;28;20025;-74
2022/02/14 00:50:21;;;;;;;12.00;3.80;;;;;;;11.27;60.64;99811.16;5047600;28;20079;-73
2022/02/14 00:52:46;;;;;;;11.38;3.80;;;;;;;11.25;60.51;99811.25;5045160;28;20032;-76
2022/02/14 00:55:13;;;;;;;12.85;4.22;;;;;;;11.31;60.26;99804.78;5047504;28;20031;-74
2022/02/14 00:57:39;;;;;;;12.90;3.90;;;;;;;11.33;60.25;99779.19;5044098;28;20036;-76
2022/02/14 01:00:07;;;;;;;11.52;3.88;;;;;;;11.31;60.25;99790.75;5046853;28;20025;-75
2022/02/14 01:02:33;;;;;;;13.23;4.07;;;;;;;11.34;60.44;99783.53;5047194;28;20029;-76
2022/02/14 01:04:58;;;;;;;20.13;4.70;;;;;;;11.29;60.20;99780.28;5046982;28;20091;-74
2022/02/14 01:07:24;;;;;;;13.52;4.15;;;;;;;11.35;60.53;99785.22;5045265;28;20104;-74
2022/02/14 01:09:49;;;;;;;14.55;3.97;;;;;;;11.34;60.23;99782.66;5047173;28;20029;-74
2022/02/14 01:12:15;;;;;;;12.60;4.00;;;;;;;11.31;60.38;99781.06;5046892;28;20188;-73
2022/02/14 01:14:41;;;;;;;9.20;3.20;;;;;;;11.29;60.56;99772.38;5047226;28;20032;-76
2022/02/14 01:17:06;;;;;;;11.77;3.38;;;;;;;11.25;60.82;99774.34;5047035;28;20064;-74
2022/02/14 01:19:32;;;;;;;12.15;3.92;;;;;;;11.25;60.75;99762.94;5046902;28;20448;-76
2022/02/14 01:21:57;;;;;;;11.88;3.65;;;;;;;11.26;60.90;99746.19;5043500;28;20069;-75
2022/02/14 01:24:22;;;;;;;14.30;3.40;;;;;;;11.27;60.46;99728.56;5046291;28;20063;-75
2022/02/14 01:26:48;;;;;;;6.95;3.33;;;;;;;11.25;60.41;99736.56;5045143;28;20497;-75
2022/02/14 01:29:13;;;;;;;11.05;3.95;;;;;;;11.22;60.79;99724.41;5045672;28;20075;-75
2022/02/14 01:31:38;;;;;;;16.90;3.90;;;;;;;11.23;60.82;99720.81;5046841;28;20115;-74
2022/02/14 01:34:03;;;;;;;10.50;3.75;;;;;;;11.19;60.92;99714.00;5046541;28;20087;-74
2022/02/14 01:36:29;;;;;;;16.00;3.65;;;;;;;11.18;60.46;99714.97;5046046;28;20029;-73
2022/02/14 01:38:54;;;;;;;11.40;3.90;;;;;;;11.14;60.96;99720.47;5046222;28;20025;-74
2022/02/14 01:41:19;;;;;;;14.05;3.55;;;;;;;11.16;60.74;99721.22;5039482;28;20036;-74
2022/02/14 01:43:45;;;;;;;10.35;3.67;;;;;;;11.07;61.27;99710.25;5026612;28;20357;-74
2022/02/14 01:46:11;;;;;;;6.47;3.10;;;;;;;11.10;61.06;99702.19;5025664;28;20056;-75
2022/02/14 01:48:36;;;;;;;13.20;3.83;;;;;;;11.09;61.39;99697.00;5026630;28;20033;-73
2022/02/14 01:51:02;;;;;;;13.88;3.40;;;;;;;11.10;61.04;99702.19;5040955;28;20055;-74
2022/02/14 01:53:27;;;;;;;16.73;3.60;;;;;;;11.07;61.26;99699.72;5044679;28;20025;-75
2022/02/14 01:55:53;;;;;;;7.40;3.42;;;;;;;11.04;61.67;99691.13;5044065;28;20059;-76
2022/02/14 01:58:19;;;;;;;11.40;3.30;;;;;;;11.03;61.68;99697.31;5045709;28;20116;-75
2022/02/14 02:00:45;;;;;;;4.65;2.90;;;;;;;10.97;61.93;99685.34;5045938;28;20078;-75
2022/02/14 02:03:10;;;;;;;8.57;3.50;;;;;;;10.96;61.87;99686.28;5044949;28;20384;-74
2022/02/14 02:05:37;;;;;;;10.95;3.08;;;;;;;10.92;62.24;99675.03;5044927;28;20041;-74
2022/02/14 02:08:02;;;;;;;14.50;3.53;;;;;;;10.85;62.23;99679.81;5044275;28;20430;-73
2022/02/14 02:10:28;;;;;;;8.85;3.05;;;;;;;10.77;62.27;99679.34;5040518;28;20038;-75
2022/02/14 02:12:55;;;;;;;8.73;2.97;;;;;;;10.72;62.74;99665.59;5038401;28;20028;-73
2022/02/14 02:15:21;;;;;;;11.30;3.65;;;;;;;10.62;62.81;99670.47;5034517;28;20094;-74
2022/02/14 02:17:47;;;;;;;15.50;4.03;;;;;;;10.58;63.21;99663.69;5037688;28;20814;-75
2022/02/14 02:20:15;;;;;;;7.35;3.10;;;;;;;10.55;63.25;99664.69;5026314;28;20463;-74
2022/02/14 02:22:42;;;;;;;11.27;2.97;;;;;;;10.57;63.51;99662.81;5025621;28;20029;-73
2022/02/14 02:25:08;;;;;;;6.82;3.08;;;;;;;10.59;62.97;99655.69;5025801;28;20032;-73
2022/02/14 02:27:34;;;;;;;8.82;2.63;;;;;;;10.56;63.17;99653.22;5025718;28;20036;-74
2022/02/14 02:30:00;;;;;;;9.57;3.10;;;;;;;10.57;63.35;99654.91;5031711;28;20029;-73
2022/02/14 02:32:31;;;;;;;8.77;2.70;;;;;;;10.62;63.31;99644.13;5043688;28;20033;-73
2022/02/14 02:34:56;;;;;;;7.80;3.00;;;;;;;10.61;63.02;99637.16;5043918;28;20052;-74
2022/02/14 02:37:22;;;;;;;8.23;2.70;;;;;;;10.65;62.81;99632.59;5043973;28;20415;-75
2022/02/14 02:39:48;;;;;;;11.40;2.90;;;;;;;10.59;63.04;99624.09;5042840;28;20112;-73
2022/02/14 02:42:16;;;;;;;9.15;2.97;;;;;;;10.64;62.92;99625.63;5045754;28;20098;-75
2022/02/14 02:44:42;;;;;;;6.68;2.50;;;;;;;10.64;63.42;99628.25;5038723;28;20061;-73
2022/02/14 02:47:10;;;;;;;8.38;3.53;;;;;;;10.54;63.46;99612.94;5025421;28;20055;-73
2022/02/14 02:49:35;;;;;;;8.73;2.60;;;;;;;10.55;63.50;99611.16;5025452;28;20056;-75
2022/02/14 02:52:04;;;;;;;5.05;2.75;;;;;;;10.51;63.54;99613.13;5031568;28;20029;-73
2022/02/14 02:54:29;;;;;;;5.80;2.40;;;;;;;10.47;63.73;99603.66;5040735;28;20514;-76
2022/02/14 02:56:55;;;;;;;7.25;2.67;;;;;;;10.40;63.70;99597.00;5044391;28;20033;-73
2022/02/14 02:59:22;;;;;;;5.65;2.35;;;;;;;10.34;64.17;99601.66;5037374;28;20025;-76
2022/02/14 03:01:48;;;;;;;7.32;2.30;;;;;;;10.33;64.18;99594.69;5040784;28;20036;-75
2022/02/14 03:04:14;;;;;;;7.05;2.67;;;;;;;10.40;63.82;99597.84;5034120;28;20022;-75
2022/02/14 03:06:40;;;;;;;8.20;3.05;;;;;;;10.36;64.10;99594.50;5023331;28;20072;-74
2022/02/14 03:09:06;;;;;;;7.65;2.97;;;;;;;10.34;63.95;99590.28;5025064;28;20064;-73
2022/02/14 03:11:32;;;;;;;5.78;2.35;;;;;;;10.38;64.11;99572.53;5025111;28;20025;-74
2022/02/14 03:13:58;;;;;;;7.80;2.90;;;;;;;10.32;64.08;99584.22;5024826;28;20018;-74
2022/02/14 03:16:24;;;;;;;3.88;2.35;;;;;;;10.28;64.35;99570.38;5023933;28;20037;-74
2022/02/14 03:18:50;;;;;;;8.50;2.92;;;;;;;10.38;64.15;99577.81;5024991;28;20383;-75
2022/02/14 03:21:16;;;;;;;7.55;3.30;;;;;;;10.38;64.40;99562.00;5036117;28;20127;-74
2022/02/14 03:23:41;;;;;;;5.38;2.50;;;;;;;10.41;64.03;99565.31;5043146;28;20116;-74
2022/02/14 03:26:07;;;;;;;6.30;2.22;;;;;;;10.45;64.02;99563.38;5039661;28;20025;-74
2022/02/14 03:28:33;;;;;;;6.97;2.35;;;;;;;10.49;63.66;99565.78;5031091;28;20104;-74
2022/02/14 03:30:59;;;;;;;4.40;2.67;;;;;;;10.56;63.19;99570.69;5048432;28;20175;-74
2022/02/14 03:33:25;;;;;;;6.57;2.25;;;;;;;10.67;63.01;99570.13;5053738;28;20044;-73
2022/02/14 03:35:50;;;;;;;10.60;2.30;;;;;;;10.77;62.22;99559.94;5067698;28;20020;-73
2022/02/14 03:38:16;;;;;;;6.18;2.00;;;;;;;10.84;61.85;99562.13;5068227;28;20025;-74
2022/02/14 03:40:42;;;;;;;6.35;2.30;;;;;;;10.89;61.79;99555.78;5068668;28;20043;-76
2022/02/14 03:43:08;;;;;;;8.05;2.08;;;;;;;10.97;61.42;99569.38;5068603;28;20536;-75
2022/02/14 03:45:34;;;;;;;5.10;2.00;;;;;;;11.08;61.00;99550.31;5068760;28;20031;-74
2022/02/14 03:48:00;;;;;;;6.13;1.90;;;;;;;11.16;60.93;99548.09;5068096;28;20111;-75
2022/02/14 03:50:25;;;;;;;3.10;1.95;;;;;;;11.22;60.40;99546.88;5056397;28;20028;-74
2022/02/14 03:52:51;;;;;;;5.22;2.08;;;;;;;11.19;60.81;99541.78;5047298;28;20032;-74
2022/02/14 03:55:17;;;;;;;6.85;2.35;;;;;;;11.23;60.72;99538.06;5047293;28;20021;-74
2022/02/14 03:57:43;;;;;;;2.90;1.73;;;;;;;11.33;60.32;99541.00;5042490;28;20030;-75
2022/02/14 04:00:10;;;;;;;5.63;1.95;;;;;;;11.28;60.59;99541.25;5042382;28;20491;-74
2022/02/14 04:02:37;;;;;;;4.68;2.10;;;;;;;11.30;60.44;99538.53;5030150;28;20037;-75
2022/02/14 04:05:03;;;;;;;6.72;2.00;;;;;;;11.31;60.34;99540.22;5043411;28;20046;-76
2022/02/14 04:07:29;;;;;;;9.20;2.00;;;;;;;11.34;60.52;99532.13;5027672;28;20030;-73
2022/02/14 04:09:55;;;;;;;6.35;2.50;;;;;;;11.27;60.62;99521.09;5027755;28;20080;-74
2022/02/14 04:12:20;;;;;;;5.85;2.15;;;;;;;11.27;60.80;99518.47;5028198;28;20018;-74
2022/02/14 04:14:45;;;;;;;5.07;2.10;;;;;;;11.24;61.19;99529.19;5027905;28;20533;-73
2022/02/14 04:17:11;;;;;;;8.30;2.30;;;;;;;11.30;60.93;99525.34;5028630;28;20021;-75
2022/02/14 04:19:36;;;;;;;7.60;2.45;;;;;;;11.28;61.10;99509.63;5032555;28;20608;-75
2022/02/14 04:22:01;;;;;;;10.20;2.75;;;;;;;11.27;60.93;99518.47;5046795;28;20051;-73
2022/02/14 04:24:27;;;;;;;4.13;2.05;;;;;;;11.23;61.28;99509.88;5042705;28;20041;-73
2022/02/14 04:26:52;;;;;;;4.22;2.30;;;;;;;11.24;61.35;99514.22;5035141;28;20476;-74
2022/02/14 04:29:18;;;;;;;4.10;1.98;;;;;;;11.23;61.60;99519.59;5027609;28;20041;-74
2022/02/14 04:31:44;;;;;;;5.25;2.00;;;;;;;11.21;61.25;99514.41;5028357;28;20026;-74
2022/02/14 04:34:09;;;;;;;9.48;2.13;;;;;;;11.23;61.56;99507.25;5028083;28;20029;-74
2022/02/14 04:36:34;;;;;;;6.85;1.90;;;;;;;11.25;61.53;99517.69;5033689;28;20043;-74
2022/02/14 04:38:59;;;;;;;7.00;2.45;;;;;;;11.26;61.66;99516.78;5043376;28;20036;-74
2022/02/14 04:41:25;;;;;;;7.93;2.50;;;;;;;11.22;62.22;99518.72;5033526;28;20033;-73
2022/02/14 04:43:52;;;;;;;6.28;2.15;;;;;;;11.22;62.29;99517.88;5046675;28;20025;-73
2022/02/14 04:46:18;;;;;;;8.13;2.00;;;;;;;11.18;62.04;99525.13;5047387;28;20081;-74
2022/02/14 04:48:44;;;;;;;3.97;1.92;;;;;;;11.17;62.50;99515.50;5047937;28;20025;-74
2022/02/14 04:51:09;;;;;;;6.47;2.00;;;;;;;11.18;62.56;99508.44;5045380;28;20029;-73
2022/02/14 04:53:34;;;;;;;6.55;2.42;;;;;;;11.18;62.69;99514.59;5040724;28;20055;-74
2022/02/14 04:56:00;;;;;;;6.10;2.05;;;;;;;11.16;62.37;99512.94;5046946;28;20033;-73
2022/02/14 04:58:25;;;;;;;6.13;2.10;;;;;;;11.19;62.34;99511.00;5032684;28;20033;-74
2022/02/14 05:00:51;;;;;;;8.70;2.70;;;;;;;11.19;62.17;99536.50;5037974;28;20033;-75
2022/02/14 05:03:16;;;;;;;7.15;2.35;;;;;;;11.19;62.13;99518.06;5038468;28;20044;-72
2022/02/14 05:05:41;;;;;;;5.65;2.40;;;;;;;11.15;62.37;99506.00;5039749;28;20053;-74
2022/02/14 05:08:07;;;;;;;7.78;2.00;;;;;;;11.18;62.26;99517.22;5044641;28;20024;-75
2022/02/14 05:10:32;;;;;;;3.90;2.25;;;;;;;11.12;62.54;99515.78;5048106;28;20407;-75
2022/02/14 05:12:57;;;;;;;6.07;2.47;;;;;;;11.11;62.55;99511.44;5043910;28;20039;-74
2022/02/14 05:15:22;;;;;;;6.50;1.88;;;;;;;11.10;62.71;99525.56;5045938;28;20032;-73
2022/02/14 05:17:48;;;;;;;9.15;2.47;;;;;;;11.17;62.22;99514.66;5044394;28;20025;-74
2022/02/14 05:20:13;;;;;;;5.30;2.70;;;;;;;11.20;62.49;99538.22;5046419;28;20024;-74
2022/02/14 05:22:38;;;;;;;5.13;1.90;;;;;;;11.18;62.59;99526.91;5042101;28;20040;-74
2022/02/14 05:25:04;;;;;;;6.82;2.30;;;;;;;11.17;62.72;99523.41;5044662;28;20446;-74
2022/02/14 05:27:30;;;;;;;8.02;2.22;;;;;;;11.09;63.58;99521.25;5044647;28;20380;-72
2022/02/14 05:29:55;;;;;;;9.57;2.45;;;;;;;11.06;64.75;99525.81;5044577;28;20044;-74
2022/02/14 05:32:20;;;;;;;4.57;2.15;;;;;;;11.02;64.71;99521.66;5046375;28;20143;-73
2022/02/14 05:34:46;;;;;;;5.07;2.15;;;;;;;10.96;65.00;99530.78;5045876;28;20471;-74
2022/02/14 05:37:11;;;;;;;6.32;2.30;;;;;;;10.92;65.29;99532.72;5044169;28;20029;-73
2022/02/14 05:39:36;;;;;;;5.53;2.53;;;;;;;10.91;65.63;99530.19;5046079;28;20275;-74
2022/02/14 05:42:02;;;;;;;8.15;2.72;;;;;;;10.80;65.69;99531.63;5045727;28;20049;-72
2022/02/14 05:44:27;;;;;;;5.55;2.22;;;;;;;10.84;65.61;99534.97;5044975;28;20041;-74
2022/02/14 05:46:53;;;;;;;7.82;2.42;;;;;;;10.85;65.80;99534.88;5045514;28;20029;-74
2022/02/14 05:49:18;;;;;;;3.45;2.10;;;;;;;10.85;65.64;99545.41;5045817;28;20407;-73
2022/02/14 05:51:43;;;;;;;8.65;2.60;;;;;;;10.78;65.80;99535.28;5045257;28;20021;-73
2022/02/14 05:54:09;;;;;;;4.10;2.50;;;;;;;10.80;66.08;99547.44;5044487;28;20025;-74
2022/02/14 05:56:34;;;;;;;6.30;2.35;;;;;;;10.80;66.40;99557.97;5043250;28;20056;-73
2022/02/14 05:59:00;;;;;;;6.53;2.97;;;;;;;10.70;67.09;99548.88;5037574;28;20021;-74
2022/02/14 06:01:26;;;;;;;4.38;1.80;;;;;;;10.68;67.63;99574.44;5046410;28;20188;-73
2022/02/14 06:03:52;;;;;;;6.35;2.13;;;;;;;10.56;68.67;99595.28;5054802;28;20016;-72
2022/02/14 06:06:17;;;;;;;3.25;2.03;;;;;;;10.43;70.17;99599.47;5052636;28;20045;-72
2022/02/14 06:08:42;;;;;;;3.05;1.90;;;;;;;10.26;71.86;99605.63;5047052;28;20025;-74
2022/02/14 06:11:07;;;;;;;5.68;2.45;;;;;;;10.18;72.56;99616.56;5030932;28;20049;-74
2022/02/14 06:13:33;;;;;;;6.00;2.45;;;;;;;9.98;73.78;99644.75;5024223;28;20068;-74
2022/02/14 06:15:58;;;;;;;5.82;2.38;;;;;;;9.92;74.13;99639.78;5035769;28;20025;-74
2022/02/14 06:18:24;;;;;;;2.67;1.50;;;;;;;9.69;73.80;99654.97;5038764;28;20243;-74
2022/02/14 06:20:49;;;;;;;1.95;1.15;;;;;;;9.46;74.88;99639.34;5028596;28;20430;-77
2022/02/14 06:23:15;;;;;;;2.30;1.45;;;;;;;9.36;75.34;99643.34;5038766;28;20036;-69
2022/02/14 06:25:40;;;;;;;2.80;1.40;;;;;;;9.26;76.24;99642.97;5035320;28;20530;-71
2022/02/14 06:28:06;;;;;;;2.13;1.30;;;;;;;9.21;76.74;99647.56;5028962;28;20091;-72
2022/02/14 06:30:32;;;;;;;3.78;1.58;;;;;;;9.08;77.51;99652.56;5046193;28;20427;-69
2022/02/14 06:32:57;;;;;;;4.85;1.60;;;;;;;9.09;77.74;99660.38;5053672;28;20100;-70
2022/02/14 06:35:23;;;;;;;2.97;1.73;;;;;;;9.02;78.34;99664.22;5053835;28;20099;-69
2022/02/14 06:37:48;;;;;;;3.03;1.70;;;;;;;8.92;78.93;99666.44;5053743;28;20455;-69
2022/02/14 06:40:14;;;;;;;3.92;1.90;;;;;;;8.89;79.45;99666.56;5053278;28;20475;-68
2022/02/14 06:42:40;;;;;;;4.35;2.00;;;;;;;8.90;79.75;99672.66;5054912;28;20028;-69
2022/02/14 06:45:05;;;;;;;6.18;2.00;;;;;;;8.88;80.13;99679.78;5053407;28;20177;-70
2022/02/14 06:47:31;;;;;;;3.92;2.03;;;;;;;8.88;80.64;99679.78;5051858;28;20450;-69
2022/02/14 06:49:56;;;;;;;3.75;2.40;;;;;;;8.83;80.82;99693.97;5053704;28;20013;-70
2022/02/14 06:52:22;;;;;;;3.53;2.13;;;;;;;8.78;80.75;99700.31;5054452;28;20024;-69
2022/02/14 06:54:48;;;;;;;6.10;2.53;;;;;;;8.75;81.15;99703.09;5051629;28;20025;-72
2022/02/14 06:57:13;;;;;;;5.10;2.55;;;;;;;8.77;80.99;99715.25;5058938;28;20396;-69
2022/02/14 06:59:39;;;;;;;5.53;2.40;;;;;;;8.72;81.33;99719.84;5056665;28;20024;-72
2022/02/14 07:02:04;;;;;;;7.75;2.85;;;;;;;8.71;81.15;99726.03;5044167;28;20044;-64
2022/02/14 07:04:29;;;;;;;3.08;2.17;;;;;;;8.65;81.63;99723.66;5043676;28;21087;-61
2022/02/14 07:06:55;;;;;;;6.80;2.33;;;;;;;8.58;81.58;99731.81;5048075;28;20049;-69
2022/02/14 07:09:20;;;;;;;6.55;2.78;;;;;;;8.63;81.98;99733.38;5042722;28;20052;-68
2022/02/14 07:11:45;;;;;;;10.00;3.03;;;;;;;8.57;81.59;99740.63;5043884;28;20677;-68
2022/02/14 07:14:11;;;;;;;9.93;2.70;;;;;;;8.57;81.50;99756.38;5044555;28;20514;-69
2022/02/14 07:16:36;;;;;;;7.85;2.85;;;;;;;8.62;81.37;99745.66;5044227;28;20072;-69
2022/02/14 07:19:02;;;;;;;9.82;2.45;;;;;;;8.63;81.18;99743.88;5043166;28;20119;-70
2022/02/14 07:21:28;;;;;;;5.88;2.55;;;;;;;8.62;81.07;99747.44;5043066;28;20174;-69
2022/02/14 07:23:54;;;;;;;3.90;2.40;;;;;;;8.58;81.20;99750.19;5043470;28;20032;-69
2022/02/14 07:26:19;;;;;;;11.93;2.95;;;;;;;8.57;81.28;99759.00;5043155;28;20032;-70
2022/02/14 07:28:45;;;;;;;12.48;2.42;;;;;;;8.54;80.46;99769.63;5043293;28;20017;-69
2022/02/14 07:31:10;;;;;;;5.18;2.22;;;;;;;8.59;80.41;99770.28;5044529;28;20027;-69
2022/02/14 07:33:35;;;;;;;12.10;3.25;;;;;;;8.64;80.28;99763.97;5044048;28;20033;-68
2022/02/14 07:36:01;;;;;;;10.52;2.45;;;;;;;8.63;79.91;99768.38;5045549;28;20033;-73
2022/02/14 07:38:26;;;;;;;10.10;2.72;;;;;;;8.62;79.64;99785.06;5050523;28;20021;-72
2022/02/14 07:40:51;;;;;;;6.03;2.58;;;;;;;8.64;79.61;99796.31;5059073;28;20098;-68
2022/02/14 07:43:17;;;;;;;11.48;3.28;;;;;;;8.64;79.50;99798.13;5056764;28;20048;-71
2022/02/14 07:45:43;;;;;;;8.02;2.28;;;;;;;8.69;79.14;99798.75;5018691;28;20042;-70
2022/02/14 07:48:08;;;;;;;9.35;2.30;;;;;;;8.72;78.89;99801.25;5012491;28;20017;-71
2022/02/14 07:50:34;;;;;;;6.90;2.10;;;;;;;8.78;78.36;99808.88;5022270;28;20044;-68
2022/02/14 07:53:00;;;;;;;9.95;2.67;;;;;;;8.77;78.08;99799.31;5024000;28;20036;-69
2022/02/14 07:55:26;;;;;;;9.60;2.22;;;;;;;8.80;77.88;99801.81;5023005;28;20025;-70
2022/02/14 07:57:51;;;;;;;9.00;2.45;;;;;;;8.82;77.79;99814.88;5022886;28;20158;-71
2022/02/14 08:00:17;;;;;;;6.38;1.77;;;;;;;8.88;76.96;99817.22;5022644;28;20017;-69
2022/02/14 08:02:42;;;;;;;10.30;2.90;;;;;;;8.95;76.49;99813.41;5024347;28;20029;-70
2022/02/14 08:05:08;;;;;;;6.57;1.88;;;;;;;9.00;76.69;99823.69;5014163;28;20540;-69
2022/02/14 08:07:34;;;;;;;5.07;1.35;;;;;;;8.98;76.84;99822.94;5009283;28;20406;-69
2022/02/14 08:09:59;;;;;;;4.68;1.38;;;;;;;8.91;76.97;99819.69;5018682;28;20021;-69
2022/02/14 08:12:25;;;;;;;7.60;1.90;;;;;;;9.06;76.48;99823.44;5012034;28;20033;-70
2022/02/14 08:14:52;;;;;;;7.07;1.85;;;;;;;9.13;76.69;99838.94;5017958;28;20017;-70
2022/02/14 08:17:18;;;;;;;3.08;1.55;;;;;;;9.13;76.62;99841.56;5027168;28;20119;-70
2022/02/14 08:19:43;;;;;;;4.82;1.85;;;;;;;9.05;76.52;99840.13;5025999;28;20116;-70
2022/02/14 08:22:09;;;;;;;9.90;1.90;;;;;;;9.09;76.61;99839.06;5027436;28;20025;-68
2022/02/14 08:24:34;;;;;;;4.32;1.50;;;;;;;9.17;76.73;99851.88;5024135;28;20470;-68
2022/02/14 08:26:59;;;;;;;6.18;1.70;;;;;;;9.18;76.58;99844.88;5027302;28;20021;-68
2022/02/14 08:29:26;;;;;;;7.35;1.90;;;;;;;9.24;76.25;99847.19;5026407;28;20028;-70
2022/02/14 08:31:52;;;;;;;4.07;2.10;;;;;;;9.17;76.82;99851.03;5024343;28;20032;-70
2022/02/14 08:34:18;;;;;;;6.03;2.33;;;;;;;9.28;76.32;99856.69;5027907;28;20013;-70
2022/02/14 08:36:43;;;;;;;4.18;2.15;;;;;;;9.26;76.23;99847.13;5027613;28;20021;-72
2022/02/14 08:39:09;;;;;;;4.20;2.40;;;;;;;9.20;76.65;99856.16;5024085;28;20029;-69
2022/02/14 08:41:35;;;;;;;7.65;2.40;;;;;;;9.23;76.16;99849.00;5017236;28;20076;-71
2022/02/14 08:44:00;;;;;;;7.70;2.63;;;;;;;9.17;76.45;99851.88;5046860;28;20020;-69
2022/02/14 08:46:26;;;;;;;4.72;2.40;;;;;;;9.21;75.97;99857.84;5045240;28;20017;-71
2022/02/14 08:48:52;;;;;;;6.40;2.97;;;;;;;9.21;76.15;99855.22;5025137;28;20025;-72
2022/02/14 08:51:18;;;;;;;5.15;2.60;;;;;;;9.19;76.05;99851.81;5026993;28;20044;-69
2022/02/14 08:53:45;;;;;;;11.35;3.05;;;;;;;9.01;76.70;99877.97;5027426;28;20017;-69
2022/02/14 08:56:10;;;;;;;6.85;3.45;;;;;;;9.07;76.37;99858.47;5028064;28;20076;-69
2022/02/14 08:58:39;;;;;;;4.72;2.90;;;;;;;9.15;76.32;99869.47;5023991;28;20021;-70
2022/02/14 09:01:05;;;;;;;4.63;3.20;;;;;;;9.19;76.40;99870.22;5024380;28;20342;-71
2022/02/14 09:03:30;;;;;;;7.65;3.28;;;;;;;9.21;76.27;99866.59;5022840;28;20408;-70
2022/02/14 09:05:55;;;;;;;8.88;3.55;;;;;;;9.27;75.69;99875.97;5023602;28;20612;-71
2022/02/14 09:08:22;;;;;;;6.03;3.15;;;;;;;9.27;75.56;99875.16;5026901;28;20353;-70
2022/02/14 09:10:47;;;;;;;5.32;3.20;;;;;;;9.28;75.65;99896.09;5020765;28;20036;-69
2022/02/14 09:13:13;;;;;;;3.95;2.90;;;;;;;9.27;75.70;99885.66;5010696;28;20490;-72
2022/02/14 09:15:39;;;;;;;8.05;2.83;;;;;;;9.27;75.87;99890.91;5018376;28;20023;-71
2022/02/14 09:18:04;;;;;;;7.20;2.70;;;;;;;9.22;75.83;99891.13;5023946;28;20124;-72
2022/02/14 09:20:30;;;;;;;4.72;2.85;;;;;;;9.20;75.64;99900.81;5022834;28;20451;-72
2022/02/14 09:22:55;;;;;;;5.50;3.10;;;;;;;9.22;75.94;99897.19;5006818;28;20017;-71
2022/02/14 09:25:22;;;;;;;2.83;2.40;;;;;;;9.31;75.22;99897.75;5022762;28;20469;-72
2022/02/14 09:27:47;;;;;;;5.60;2.67;;;;;;;9.39;75.06;99907.94;5024820;28;20108;-70
2022/02/14 09:30:13;;;;;;;7.70;2.63;;;;;;;9.39;74.59;99918.44;5025736;28;20163;-71
2022/02/14 09:32:39;;;;;;;7.00;2.85;;;;;;;9.46;74.02;99920.72;5013606;28;20372;-70
2022/02/14 09:35:05;;;;;;;6.70;2.60;;;;;;;9.41;73.97;99924.47;5021260;28;20360;-71
2022/02/14 09:37:31;;;;;;;7.97;3.08;;;;;;;9.22;74.87;99933.16;5023742;28;20033;-71
2022/02/14 09:39:57;;;;;;;5.82;2.83;;;;;;;9.30;74.46;99938.94;5025827;28;20309;-71
2022/02/14 09:42:22;;;;;;;9.38;2.90;;;;;;;9.29;73.70;99934.63;5025157;28;20032;-69
2022/02/14 09:44:48;;;;;;;10.32;2.50;;;;;;;9.23;73.45;99940.13;5025962;28;20120;-66
2022/02/14 09:47:13;;;;;;;6.80;2.25;;;;;;;9.34;72.39;99937.88;5035519;28;20099;-68
2022/02/14 09:49:41;;;;;;;8.50;1.95;;;;;;;9.57;71.61;99936.03;5032334;28;20418;-63
2022/02/14 09:52:07;;;;;;;7.05;1.85;;;;;;;9.57;71.22;99946.53;5043079;28;20563;-67
2022/02/14 09:54:32;;;;;;;4.35;1.58;;;;;;;9.73;68.18;99948.50;5027810;28;20036;-63
2022/02/14 09:56:58;;;;;;;12.40;2.78;;;;;;;9.81;67.01;99948.16;5034321;28;20379;-69
2022/02/14 09:59:23;;;;;;;4.65;1.20;;;;;;;9.71;66.24;99974.03;5031839;28;20017;-69
2022/02/14 10:01:49;;;;;;;8.35;1.63;;;;;;;9.50;66.71;99975.81;5033355;28;20524;-69
2022/02/14 10:04:14;;;;;;;4.82;1.40;;;;;;;9.47;67.23;99974.16;5034940;28;20057;-67
2022/02/14 10:06:42;;;;;;;4.07;1.38;;;;;;;9.51;67.24;99970.47;5033115;28;20052;-69
2022/02/14 10:09:24;;;;;;;7.93;1.52;;;;;;;9.44;67.00;99977.78;5035892;28;20491;-70
2022/02/14 10:12:12;;;;;;;4.07;1.77;;;;;;;9.49;68.24;99972.34;5021461;28;20083;-68
2022/02/14 10:14:39;;;;;;;7.90;1.90;;;;;;;9.56;67.78;99986.94;5023837;28;20360;-70
2022/02/14 10:17:18;;;;;;;9.25;1.90;;;;;;;9.51;68.02;99983.63;5023726;28;20127;-72
2022/02/14 10:20:00;;;;;;;8.48;1.83;;;;;;;9.61;68.34;99984.09;5030756;28;20021;-74
2022/02/14 10:22:25;;;;;;;7.78;2.05;;;;;;;9.66;68.36;99986.53;5029066;28;20391;-73
2022/02/14 10:24:51;;;;;;;7.93;1.65;;;;;;;9.67;67.75;99990.88;5029286;28;20024;-75
2022/02/14 10:27:17;;;;;;;8.98;1.88;;;;;;;9.75;67.44;99998.44;5035014;28;20089;-75
2022/02/14 10:29:43;;;;;;;10.82;1.90;;;;;;;9.76;67.50;100003.63;5032534;28;20468;-72
2022/02/14 10:32:17;;;;;;;12.63;1.73;;;;;;;9.77;67.09;100010.59;5035064;28;20044;-75
2022/02/14 10:34:48;;;;;;;8.48;1.58;;;;;;;9.68;67.13;100021.50;5027376;28;20483;-74
2022/02/14 10:37:16;;;;;;;9.73;1.60;;;;;;;9.61;67.14;100026.19;5022606;28;20507;-72
2022/02/14 10:39:43;;;;;;;7.90;1.83;;;;;;;9.58;67.49;100026.31;5024216;28;20060;-73
2022/02/14 10:42:19;;;;;;;6.05;1.83;;;;;;;9.64;67.24;100022.56;5023729;28;20531;-74
2022/02/14 10:47:39;;;;;;;16.75;1.77;;;;;;;9.86;66.83;100025.97;5023934;28;20447;-73
2022/02/14 10:50:13;;;;;;;8.65;1.70;;;;;;;9.94;66.50;100033.50;5024232;28;20503;-72
2022/02/14 10:52:41;;;;;;;6.97;1.95;;;;;;;9.95;64.94;100021.22;5023047;28;20040;-73
2022/02/14 10:55:21;;;;;;;5.88;1.50;;;;;;;10.05;65.01;100030.41;5025039;28;20434;-71
2022/02/14 10:57:48;;;;;;;10.32;1.92;;;;;;;10.11;64.82;100040.66;5024022;28;20216;-69
2022/02/14 11:00:13;;;;;;;10.77;1.45;;;;;;;10.21;64.62;100046.34;5025161;28;20040;-70
2022/02/14 11:02:44;;;;;;;11.55;1.70;;;;;;;10.29;64.11;100030.22;5017942;28;20037;-68
2022/02/14 11:05:15;;;;;;;6.40;1.33;;;;;;;10.24;63.95;100034.84;5024691;28;20461;-68
2022/02/14 11:07:42;;;;;;;6.25;1.15;;;;;;;10.11;63.57;100040.66;5025247;28;20028;-68
2022/02/14 11:10:10;;;;;;;5.82;1.27;;;;;;;10.04;63.86;100047.13;5022827;28;20075;-68
2022/02/14 11:12:38;;;;;;;5.45;1.52;;;;;;;9.99;63.95;100043.84;5022397;28;20483;-68
2022/02/14 11:15:06;;;;;;;11.18;2.20;;;;;;;10.11;63.89;100043.28;5023169;28;20060;-70
2022/02/14 11:17:33;;;;;;;5.43;1.33;;;;;;;10.30;63.32;100044.25;5032124;28;20094;-71
2022/02/14 11:20:00;;;;;;;7.32;1.60;;;;;;;10.35;62.92;100043.09;5029701;28;20067;-77
2022/02/14 11:22:28;;;;;;;5.13;1.30;;;;;;;10.53;62.37;100051.13;5031974;28;20507;-78
2022/02/14 11:24:59;;;;;;;10.27;1.70;;;;;;;10.71;61.76;100045.91;5031855;28;20732;-72
2022/02/14 11:27:27;;;;;;;9.40;1.42;;;;;;;10.93;60.75;100058.06;5054569;28;20013;-76
2022/02/14 11:29:55;;;;;;;8.25;1.25;;;;;;;10.91;59.54;100054.66;5057685;28;20064;-71
2022/02/14 11:32:22;;;;;;;5.80;1.25;;;;;;;10.92;59.20;100051.06;5044709;28;20456;-68